PENO2: Grand Lake O' The Cherokees, Pensacola Dm

Data processed at Mon Jul 16 2018 23:31


All information presented herein is the property of the government of the United States of America and may be revised or deleted at any time without prior notice.
Dissemination of this information without the expressed written consent of the Public Affairs Office, Tulsa District U.S. Army Corps of Engineers is strictly prohibited.
These data are gathered electronically and, as presented, have not undergone any form of quality control. These data are not guaranteed to be valid or correct.
Go to home page.
Go to station list.

Upstream stations:

Downstream station:
Previous Day
Next Day
Current Day
    
SHEF ID:       PENO2     Pensacola (Grand Lake)
STATION TYPE:  RESERVOIR

               PRECIP ELEVATION   STORAGE    INFLOW   RELEASE  AIR-TEMP  WIND-DIRWIND-SPEED REL-HUMID SOLAR-RAD   VOLTAGE  BAT-LOAD
                   in        ft     ac-ft       cfs       cfs         F       deg       mph         %      W/m2      volt      volt
              Ccp-Rev   Ccp-Rev   Ccp-Rev  Regi-Rev  Regi-Rev   Ccp-Rev   Ccp-Rev   Ccp-Rev   Ccp-Rev   Ccp-Rev   Ccp-Rev   Ccp-Rev
(US/Central)
07/14 00:00      0.00    743.93   1471037        29         0     82.60    139.66      0.65     70.29      0.00     12.72     12.41
07/14 01:00      0.00    743.92   1470628         0         0     81.14    150.01      0.23     74.52      0.00     12.72     12.41
07/14 02:00      0.00    743.92   1470628         0         0     80.89    150.25      0.95     74.13      0.00     12.71     12.33
07/14 03:00      0.00    743.93   1471037         0         0     80.69    128.69      0.38     74.11      0.00     12.70     12.33
07/14 04:00      0.00    743.93   1471037         0         0     79.70    130.56      0.45     77.94      0.00     12.70     12.33
07/14 05:00      0.00    743.92   1470628        14         0     80.13    173.80      0.37     75.53      0.00     13.37     12.97
07/14 06:00      0.00    743.91   1470219        29         0     79.86    148.38      1.03     75.15      0.00     13.43     12.97
07/14 07:00      0.00    743.90   1469810        91       214     80.26    122.16      0.69     74.13      5.76     13.46     12.97
07/14 08:00      0.01    743.90   1469810       106       214     80.76    160.17      2.88     74.26     18.29     13.49     12.97
07/14 09:00      0.01    743.92   1470628       121       320     78.58    180.82      1.84     86.27     86.73     13.52     12.97
07/14 10:00      0.00    743.92   1470628       122       214     78.93    117.22      1.06     89.33    224.69     14.52     12.89
07/14 11:00      0.00    743.93   1471037       122       214     81.72    133.92      0.33     81.84    280.03     13.01     13.05
07/14 12:00      0.00    743.91   1470219        60       214     85.75    138.96      1.74     65.55    536.28     12.88     12.49
07/14 13:00      0.00    743.92   1470628        45       214     88.72    169.32      4.14     55.12    870.24     12.79     12.41
07/14 14:00      0.00    743.91   1470219        30         0     91.35    174.71      4.00     50.75    859.89     12.74     12.09
07/14 15:00      0.00    743.91   1470219        15         0     93.90    180.94      5.27     45.42    725.71     12.85     12.33
07/14 16:00      0.00    743.91   1470219         0         0     94.50    168.71      6.47     42.43    614.50     12.61     12.09
07/14 17:00      0.78    743.85   1467765        62         0     85.82    237.30     11.84     64.74     74.01     12.84     12.09
07/14 18:00      0.62    743.86   1468174       124         0     72.86    161.99      2.95     99.99      3.10     12.83     12.17
07/14 19:00      0.00    743.89   1469401       139         0     74.95    124.66      0.73    100.26     43.15     12.81     12.41
07/14 20:00      0.00    744.02   1474730       154         0     76.05     56.39      0.35    100.15     28.97     12.67     12.01
07/14 21:00      0.00    743.91   1470219       691       214     76.64     70.27      0.79     97.88      1.01     12.74     12.09
07/14 22:00      0.00    743.90   1469810       845       321     76.37     87.14      0.30     97.48      0.00     12.79     12.09
07/14 23:00      0.00    743.97   1472673       998       214     76.50     67.29      0.20     95.99      0.00     12.76     12.41